ilmateenistus.ee keskkonnaagentuur.ee
EETN Tallinn
FTEO31 EETN 152300
TAF EETN 152330Z 1600/1624 13008KT CAVOK=

METAR EETN 160120Z 11005KT CAVOK 19/17 Q1017=
Tallinn
EEKA Kärdla
METAR EEKA 160120Z NIL=
Kärdla
EEKE Kuressaare
METAR EEKE 160120Z AUTO 14009KT 9999NDV NCD 22/20 Q1014=
Kuressaare
EEPU Pärnu
METAR EEPU 160120Z AUTO 09005KT 9999 NCD 20/17 Q1016=
Pärnu
EETU Tartu
METAR EETU 160120Z AUTO VRB02KT 0250 R08/0450N BCFG NCD 18/16 Q1017=
Tartu
EEEI Ämari
METAR EEEI 160050Z 13006KT CAVOK 20/17 Q1016=
Ämari